Time;durP1;ratioP1;P1;durP2;ratioP2;P2;SDS_P1;SDS_P2;PMS_P1;PMS_P2;Temp;Humidity;BMP_temperature;BMP_pressure;BME280_temperature;BME280_humidity;BME280_pressure;Samples;Min_cycle;Max_cycle;Signal;HPM_P1;HPM_P2
2021/12/14 00:00:27;;;;;;;5.72;4.07;;;6.50;99.90;;;;;;5014730;28;20047;-86
2021/12/14 00:02:55;;;;;;;8.68;4.78;;;6.50;99.90;;;;;;5015779;28;20032;-86
2021/12/14 00:05:23;;;;;;;7.13;4.75;;;6.50;99.90;;;;;;5015056;28;20032;-85
2021/12/14 00:07:50;;;;;;;7.78;4.53;;;6.50;99.90;;;;;;4948992;28;20125;-86
2021/12/14 00:13:19;;;;;;;7.47;4.57;;;6.50;99.90;;;;;;4999353;28;20141;-85
2021/12/14 00:15:46;;;;;;;7.93;4.47;;;6.50;99.90;;;;;;5005915;28;20027;-85
2021/12/14 00:18:13;;;;;;;10.88;5.05;;;6.50;99.90;;;;;;5021178;28;20039;-86
2021/12/14 00:20:39;;;;;;;7.72;4.72;;;6.60;99.90;;;;;;5035637;28;20062;-86
2021/12/14 00:25:41;;;;;;;9.35;4.63;;;6.60;99.90;;;;;;5015830;28;20032;-86
2021/12/14 00:28:29;;;;;;;5.93;3.78;;;6.60;99.90;;;;;;5035795;28;20054;-85
2021/12/14 00:30:57;;;;;;;5.00;3.42;;;6.60;99.90;;;;;;5038077;28;20037;-85
2021/12/14 00:33:27;;;;;;;7.15;4.18;;;6.60;99.90;;;;;;5018196;28;20031;-85
2021/12/14 00:35:52;;;;;;;7.18;4.20;;;6.60;99.90;;;;;;5013031;28;20589;-85
2021/12/14 00:38:21;;;;;;;8.70;4.72;;;6.60;99.90;;;;;;5018689;28;20059;-85
2021/12/14 00:40:54;;;;;;;14.27;5.03;;;6.60;99.90;;;;;;5056650;23;20681;-87
2021/12/14 00:43:20;;;;;;;8.60;5.00;;;6.60;99.90;;;;;;5036680;28;20031;-86
2021/12/14 00:45:46;;;;;;;7.55;4.50;;;6.60;99.90;;;;;;5034926;28;20031;-87
2021/12/14 00:48:14;;;;;;;10.35;4.70;;;6.60;99.90;;;;;;5025776;28;20049;-87
2021/12/14 00:50:43;;;;;;;9.13;5.13;;;6.60;99.90;;;;;;5050609;28;20042;-87
2021/12/14 00:53:09;;;;;;;11.32;6.18;;;6.60;99.90;;;;;;5028849;28;20433;-86
2021/12/14 00:55:41;;;;;;;10.90;6.30;;;6.60;99.90;;;;;;5034099;28;20035;-87
2021/12/14 00:58:08;;;;;;;11.90;6.90;;;6.60;99.90;;;;;;5042501;28;20491;-86
2021/12/14 01:00:38;;;;;;;11.82;6.10;;;6.60;99.90;;;;;;5042573;28;20124;-88
2021/12/14 01:03:06;;;;;;;10.70;5.88;;;6.60;99.90;;;;;;5024300;28;20035;-87
2021/12/14 01:05:36;;;;;;;9.75;5.55;;;6.60;99.90;;;;;;5014932;28;20035;-87
2021/12/14 01:08:04;;;;;;;8.98;5.18;;;6.60;99.90;;;;;;5042576;28;20096;-87
2021/12/14 01:10:36;;;;;;;8.05;4.65;;;6.60;99.90;;;;;;5008870;28;20043;-87
2021/12/14 01:13:06;;;;;;;8.63;5.30;;;6.60;99.90;;;;;;5038377;28;20483;-87
2021/12/14 01:15:51;;;;;;;7.93;5.18;;;6.60;99.90;;;;;;5054247;28;20058;-87
2021/12/14 01:18:44;;;;;;;9.30;5.45;;;6.60;99.90;;;;;;5059336;28;20031;-87
2021/12/14 01:22:12;;;;;;;9.15;5.25;;;6.60;99.90;;;;;;5031166;28;20034;-87
2021/12/14 01:24:20;;;;;;;8.45;5.05;;;6.60;99.90;;;;;;4983387;28;20441;-87
2021/12/14 01:26:46;;;;;;;12.43;4.93;;;6.60;99.90;;;;;;5042004;28;20082;-86
2021/12/14 01:29:14;;;;;;;7.75;5.13;;;6.60;99.90;;;;;;5059792;28;20534;-86
2021/12/14 01:31:42;;;;;;;12.25;5.82;;;6.60;99.90;;;;;;5031188;28;20035;-87
2021/12/14 01:34:21;;;;;;;12.15;6.43;;;6.50;99.90;;;;;;4992094;28;20061;-86
2021/12/14 01:36:53;;;;;;;12.77;6.82;;;6.60;99.90;;;;;;5022694;28;20530;-87
2021/12/14 01:41:56;;;;;;;12.27;6.45;;;6.60;99.90;;;;;;5022761;28;20043;-86
2021/12/14 01:44:24;;;;;;;11.82;6.38;;;6.50;99.90;;;;;;5008792;28;20027;-87
2021/12/14 01:46:59;;;;;;;9.68;5.63;;;6.50;99.90;;;;;;5043427;28;20030;-87
2021/12/14 01:49:28;;;;;;;9.98;6.18;;;6.50;99.90;;;;;;5026179;28;20050;-88
2021/12/14 01:51:56;;;;;;;12.05;6.90;;;6.50;99.90;;;;;;5040698;28;20039;-87
2021/12/14 01:54:34;;;;;;;14.60;7.13;;;6.50;99.90;;;;;;5008855;28;20031;-88
2021/12/14 01:57:07;;;;;;;13.75;7.32;;;6.50;99.90;;;;;;5032789;28;20031;-87
2021/12/14 01:59:38;;;;;;;13.73;7.50;;;6.50;99.90;;;;;;5021918;28;20457;-87
2021/12/14 02:02:17;;;;;;;;;;;6.50;99.90;;;;;;5059943;28;20047;-87
2021/12/14 02:04:44;;;;;;;12.32;6.75;;;6.50;99.90;;;;;;5044345;28;19910;-86
2021/12/14 02:07:14;;;;;;;14.77;7.85;;;6.50;99.90;;;;;;5035227;28;20059;-88
2021/12/14 02:09:41;;;;;;;14.00;7.13;;;6.50;99.90;;;;;;5047854;28;20114;-88
2021/12/14 02:12:16;;;;;;;13.52;7.43;;;6.50;99.90;;;;;;5036155;28;20105;-88
2021/12/14 02:14:43;;;;;;;11.27;7.13;;;6.50;99.90;;;;;;5026549;28;20039;-88
2021/12/14 02:17:14;;;;;;;12.02;6.85;;;6.50;99.90;;;;;;5039904;28;20039;-88
2021/12/14 02:19:40;;;;;;;10.98;6.90;;;6.50;99.90;;;;;;5026392;28;20027;-87
2021/12/14 02:22:08;;;;;;;11.57;7.38;;;6.50;99.90;;;;;;5019820;28;20043;-87
2021/12/14 02:24:35;;;;;;;11.63;6.70;;;6.50;99.90;;;;;;5028809;28;20030;-87
2021/12/14 02:27:01;;;;;;;10.20;6.55;;;6.50;99.90;;;;;;5049868;28;20369;-87
2021/12/14 02:29:34;;;;;;;11.23;6.75;;;6.50;99.90;;;;;;4983093;28;20045;-86
2021/12/14 02:32:12;;;;;;;9.60;6.00;;;6.50;99.90;;;;;;5024633;28;20041;-86
2021/12/14 02:34:42;;;;;;;11.98;5.63;;;6.50;99.90;;;;;;5011095;28;20469;-86
2021/12/14 02:37:08;;;;;;;7.45;5.28;;;6.50;99.90;;;;;;5018471;28;20039;-86
2021/12/14 02:42:07;;;;;;;9.02;6.07;;;6.50;99.90;;;;;;4969601;28;20499;-87
2021/12/14 02:44:33;;;;;;;12.35;6.47;;;6.50;99.90;;;;;;5031222;28;20403;-86
2021/12/14 02:47:05;;;;;;;10.20;6.65;;;6.50;99.90;;;;;;4969376;28;20030;-87
2021/12/14 02:49:33;;;;;;;13.48;7.90;;;6.50;99.90;;;;;;5031832;28;20034;-87
2021/12/14 02:52:06;;;;;;;15.90;7.88;;;6.50;99.90;;;;;;4952047;28;20495;-86
2021/12/14 02:54:45;;;;;;;12.95;7.72;;;6.50;99.90;;;;;;5032253;28;20058;-86
2021/12/14 02:57:33;;;;;;;15.93;8.50;;;6.50;99.90;;;;;;5036372;28;20035;-86
2021/12/14 02:59:59;;;;;;;12.80;8.30;;;6.50;99.90;;;;;;5024714;28;20134;-86
2021/12/14 03:02:28;;;;;;;13.45;8.32;;;6.50;99.90;;;;;;5029957;28;20130;-87
2021/12/14 03:05:08;;;;;;;15.45;8.00;;;6.50;99.90;;;;;;5020243;28;20046;-88
2021/12/14 03:07:40;;;;;;;12.13;6.57;;;6.40;99.90;;;;;;5025367;28;20098;-86
2021/12/14 03:12:51;;;;;;;12.82;7.78;;;6.50;99.90;;;;;;5018646;28;20035;-87
2021/12/14 03:15:22;;;;;;;13.15;7.05;;;6.40;99.90;;;;;;5037666;28;20521;-87
2021/12/14 03:17:54;;;;;;;12.02;6.78;;;6.40;99.90;;;;;;5034871;28;20042;-86
2021/12/14 03:20:25;;;;;;;15.25;8.13;;;6.40;99.90;;;;;;5015317;28;20074;-86
2021/12/14 03:22:58;;;;;;;;;;;6.40;99.90;;;;;;5028363;28;20043;-86
2021/12/14 03:25:24;;;;;;;15.30;8.45;;;6.40;99.90;;;;;;4967792;28;20285;-86
2021/12/14 03:27:51;;;;;;;13.52;7.20;;;6.40;99.90;;;;;;5030823;28;20026;-86
2021/12/14 03:30:42;;;;;;;14.95;8.55;;;6.40;99.90;;;;;;5034050;28;20031;-86
2021/12/14 03:33:17;;;;;;;15.68;8.15;;;6.40;99.90;;;;;;4970590;28;20430;-86
2021/12/14 03:35:43;;;;;;;15.98;8.38;;;6.40;99.90;;;;;;5003942;28;20039;-86
2021/12/14 03:38:30;;;;;;;18.02;8.90;;;6.40;99.90;;;;;;5034090;28;20038;-87
2021/12/14 03:41:19;;;;;;;16.15;8.93;;;6.40;99.90;;;;;;5012666;28;20104;-86
2021/12/14 03:44:03;;;;;;;14.70;8.70;;;6.40;99.90;;;;;;5034952;28;20035;-86
2021/12/14 03:46:32;;;;;;;15.20;7.70;;;6.40;99.90;;;;;;4956805;28;20072;-86
2021/12/14 03:48:59;;;;;;;16.38;8.23;;;6.40;99.90;;;;;;5033070;28;20035;-86
2021/12/14 03:51:26;;;;;;;12.02;7.22;;;6.40;99.90;;;;;;5017112;28;20040;-86
2021/12/14 03:53:54;;;;;;;15.40;8.70;;;6.40;99.90;;;;;;5028302;28;20043;-86
2021/12/14 03:56:20;;;;;;;13.75;8.07;;;6.40;99.90;;;;;;5006027;28;20058;-86
2021/12/14 03:58:47;;;;;;;15.38;8.13;;;6.40;99.90;;;;;;5039087;28;20143;-86
2021/12/14 04:01:22;;;;;;;14.05;8.32;;;6.40;99.90;;;;;;5019531;28;20031;-86
2021/12/14 04:03:52;;;;;;;16.45;9.43;;;6.40;99.90;;;;;;4962746;28;20031;-86
2021/12/14 04:06:18;;;;;;;16.38;8.30;;;6.40;99.90;;;;;;5029203;28;20037;-86
2021/12/14 04:08:45;;;;;;;11.70;7.50;;;6.40;99.90;;;;;;5037978;28;20035;-87
2021/12/14 04:11:12;;;;;;;10.23;6.63;;;6.40;99.90;;;;;;5004623;28;20035;-87
2021/12/14 04:13:42;;;;;;;13.35;8.10;;;6.30;99.90;;;;;;5005508;28;20031;-86
2021/12/14 04:16:11;;;;;;;15.52;8.25;;;6.40;99.90;;;;;;4966453;28;20037;-86
2021/12/14 04:18:37;;;;;;;12.07;7.72;;;6.30;99.90;;;;;;5040581;28;20042;-86
2021/12/14 04:21:03;;;;;;;15.73;8.32;;;6.40;99.90;;;;;;4972158;28;20387;-86
2021/12/14 04:23:34;;;;;;;15.00;8.02;;;6.30;99.90;;;;;;5018348;28;20576;-86
2021/12/14 04:26:01;;;;;;;16.33;8.68;;;6.30;99.90;;;;;;5033321;28;20027;-86
2021/12/14 04:28:32;;;;;;;16.35;8.77;;;6.30;99.90;;;;;;5000721;28;20519;-86
2021/12/14 04:30:57;;;;;;;;;;;6.30;99.90;;;;;;5002685;28;20522;-87
2021/12/14 04:33:30;;;;;;;14.90;7.65;;;6.30;99.90;;;;;;5028189;28;19907;-86
2021/12/14 04:35:57;;;;;;;17.40;8.52;;;6.30;99.90;;;;;;5018725;28;20066;-86
2021/12/14 04:38:31;;;;;;;14.38;8.32;;;6.30;99.90;;;;;;5028042;28;20026;-86
2021/12/14 04:52:09;;;;;;;13.57;8.90;;;6.30;99.90;;;;;;4970586;28;20509;-86
2021/12/14 04:54:45;;;;;;;15.18;7.88;;;6.30;99.90;;;;;;5034356;28;20492;-86
2021/12/14 04:57:25;;;;;;;15.25;8.52;;;6.30;99.90;;;;;;5022443;28;20039;-87
2021/12/14 04:59:54;;;;;;;20.42;8.68;;;6.30;99.90;;;;;;4961622;28;20027;-86
2021/12/14 05:02:31;;;;;;;15.18;8.07;;;6.30;99.90;;;;;;4963328;28;20046;-86
2021/12/14 05:04:57;;;;;;;13.32;8.20;;;6.30;99.90;;;;;;5019668;28;20503;-87
2021/12/14 05:07:45;;;;;;;17.23;9.70;;;6.30;99.90;;;;;;5019363;28;20031;-87
2021/12/14 05:10:19;;;;;;;15.95;8.95;;;6.20;99.90;;;;;;5008817;28;20042;-87
2021/12/14 05:12:45;;;;;;;15.60;8.75;;;6.20;99.90;;;;;;5036463;28;20412;-86
2021/12/14 05:15:13;;;;;;;16.02;8.73;;;6.20;99.90;;;;;;5039133;28;20120;-87
2021/12/14 05:17:40;;;;;;;17.77;9.75;;;6.20;99.90;;;;;;5038304;28;20035;-87
2021/12/14 05:20:10;;;;;;;19.25;9.25;;;6.20;99.90;;;;;;5024459;28;20496;-86
2021/12/14 05:22:38;;;;;;;18.73;9.77;;;6.20;99.90;;;;;;4969595;28;20043;-86
2021/12/14 05:25:17;;;;;;;23.55;10.23;;;6.20;99.90;;;;;;5001765;28;20039;-87
2021/12/14 05:27:48;;;;;;;18.93;9.60;;;6.20;99.90;;;;;;5005227;28;20054;-86
2021/12/14 05:30:19;;;;;;;19.20;8.15;;;6.20;99.90;;;;;;5021124;28;20279;-87
2021/12/14 05:32:46;;;;;;;20.33;10.13;;;6.20;99.90;;;;;;5028518;28;20525;-86
2021/12/14 05:35:17;;;;;;;20.55;9.60;;;6.20;99.90;;;;;;4955534;28;20122;-87
2021/12/14 05:37:47;;;;;;;19.30;9.30;;;6.20;99.90;;;;;;5036745;28;20023;-87
2021/12/14 05:40:25;;;;;;;21.52;9.65;;;6.20;99.90;;;;;;5034055;28;20061;-87
2021/12/14 05:43:07;;;;;;;19.45;9.85;;;6.10;99.90;;;;;;5022572;28;20049;-87
2021/12/14 05:45:38;;;;;;;22.63;10.35;;;6.20;99.90;;;;;;5027004;28;20019;-86
2021/12/14 05:48:05;;;;;;;25.23;10.73;;;6.20;99.90;;;;;;5014808;28;20451;-88
2021/12/14 05:50:41;;;;;;;24.58;9.90;;;6.20;99.90;;;;;;4962596;28;20406;-86
2021/12/14 05:53:08;;;;;;;23.58;11.07;;;6.20;99.90;;;;;;4989269;28;20080;-86
2021/12/14 05:55:41;;;;;;;23.42;11.05;;;6.20;99.90;;;;;;4983758;28;20019;-86
2021/12/14 05:58:13;;;;;;;24.90;11.75;;;6.10;99.90;;;;;;5021204;28;20027;-87
2021/12/14 06:00:44;;;;;;;19.48;9.95;;;6.10;99.90;;;;;;5038904;28;20118;-87
2021/12/14 06:03:20;;;;;;;18.83;9.52;;;6.10;99.90;;;;;;5030164;28;20482;-87
2021/12/14 06:05:47;;;;;;;22.00;10.38;;;6.10;99.90;;;;;;5031517;28;20035;-86
2021/12/14 06:08:29;;;;;;;16.30;9.75;;;6.10;99.90;;;;;;5032929;28;20023;-87
2021/12/14 06:10:56;;;;;;;19.35;9.27;;;6.10;99.90;;;;;;4951273;28;20073;-87
2021/12/14 06:13:35;;;;;;;18.80;10.05;;;6.10;99.90;;;;;;5006374;28;20035;-87
2021/12/14 06:16:01;;;;;;;16.90;8.85;;;6.10;99.90;;;;;;5026143;28;20031;-86
2021/12/14 06:18:26;;;;;;;18.58;9.48;;;6.10;99.90;;;;;;5001830;28;20080;-86
2021/12/14 06:20:52;;;;;;;17.75;9.10;;;6.10;99.90;;;;;;5014324;28;20466;-86
2021/12/14 06:23:26;;;;;;;21.40;10.65;;;6.10;99.90;;;;;;5035338;28;20054;-87
2021/12/14 06:25:52;;;;;;;20.80;11.13;;;6.00;99.90;;;;;;4991926;28;20031;-86
2021/12/14 06:28:27;;;;;;;20.67;10.38;;;6.10;99.90;;;;;;5011262;28;20030;-87
2021/12/14 06:30:53;;;;;;;17.00;9.02;;;6.00;99.90;;;;;;5043948;28;20470;-86
2021/12/14 06:33:20;;;;;;;19.23;9.60;;;6.00;99.90;;;;;;5056573;28;20069;-87
2021/12/14 06:35:49;;;;;;;18.65;9.85;;;6.00;99.90;;;;;;5024689;28;20422;-86
2021/12/14 06:38:27;;;;;;;18.38;10.73;;;6.00;99.90;;;;;;4969504;28;20088;-86
2021/12/14 06:43:25;;;;;;;22.58;10.10;;;6.00;99.90;;;;;;5028548;28;20050;-89
2021/12/14 06:45:55;;;;;;;20.92;10.15;;;6.00;99.90;;;;;;5028691;28;20112;-89
2021/12/14 06:48:30;;;;;;;23.75;10.35;;;6.00;99.90;;;;;;5012901;28;20021;-89
2021/12/14 06:51:12;;;;;;;21.63;9.52;;;6.00;99.90;;;;;;4992424;28;20049;-89
2021/12/14 06:53:39;;;;;;;24.80;10.60;;;5.90;99.90;;;;;;5006912;28;20088;-88
2021/12/14 06:56:08;;;;;;;21.33;8.93;;;5.90;99.90;;;;;;4979023;28;20129;-89
2021/12/14 06:58:44;;;;;;;20.80;8.85;;;5.90;99.90;;;;;;4976980;28;20034;-89
2021/12/14 07:01:16;;;;;;;23.75;9.48;;;5.90;99.90;;;;;;4992125;28;20036;-90
2021/12/14 07:03:49;;;;;;;19.65;8.27;;;5.90;99.90;;;;;;4995761;28;20037;-89
2021/12/14 07:06:48;;;;;;;18.52;7.68;;;5.80;99.90;;;;;;4963411;28;20141;-90
2021/12/14 07:09:19;;;;;;;14.70;7.05;;;5.80;99.90;;;;;;4995488;28;20026;-89
2021/12/14 07:11:54;;;;;;;17.38;8.32;;;5.80;99.90;;;;;;4979815;28;20038;-90
2021/12/14 07:14:49;;;;;;;21.38;7.97;;;5.80;99.90;;;;;;4999576;28;20061;-90
2021/12/14 07:17:26;;;;;;;21.17;8.15;;;5.80;99.90;;;;;;5003353;28;20044;-90
2021/12/14 07:19:55;;;;;;;17.45;7.55;;;5.80;99.90;;;;;;4960342;28;20022;-90
2021/12/14 07:22:30;;;;;;;19.48;7.80;;;5.80;99.90;;;;;;4986638;28;20030;-90
2021/12/14 07:25:13;;;;;;;15.20;7.03;;;5.80;99.90;;;;;;4994365;28;20022;-90
2021/12/14 07:27:45;;;;;;;20.05;7.80;;;5.70;99.90;;;;;;5013056;28;20045;-90
2021/12/14 07:30:30;;;;;;;18.40;7.05;;;5.80;99.90;;;;;;5008229;28;20033;-90
2021/12/14 07:33:21;;;;;;;18.80;7.32;;;5.80;99.90;;;;;;4985200;28;20117;-90
2021/12/14 07:36:12;;;;;;;13.95;6.50;;;5.80;99.90;;;;;;4994245;28;20039;-90
2021/12/14 07:38:58;;;;;;;17.90;6.97;;;5.80;99.90;;;;;;4974197;28;20042;-90
2021/12/14 07:41:35;;;;;;;16.35;6.45;;;5.80;99.90;;;;;;4995082;28;20038;-90
2021/12/14 07:44:05;;;;;;;17.88;7.78;;;5.80;99.90;;;;;;4959695;28;20041;-90
2021/12/14 07:46:58;;;;;;;15.43;6.35;;;5.80;99.90;;;;;;4997816;28;20030;-90
2021/12/14 07:49:43;;;;;;;21.77;7.20;;;5.80;99.90;;;;;;5019283;28;20116;-89
2021/12/14 07:52:08;;;;;;;16.20;5.97;;;5.80;99.90;;;;;;4996211;28;20506;-90
2021/12/14 07:54:41;;;;;;;13.45;5.97;;;5.80;99.90;;;;;;5014411;28;20068;-89
2021/12/14 07:57:19;;;;;;;14.63;6.05;;;5.80;99.90;;;;;;4997840;28;20037;-90
2021/12/14 07:59:52;;;;;;;15.00;6.35;;;5.80;99.90;;;;;;4984735;28;20038;-90
2021/12/14 08:02:41;;;;;;;14.10;5.57;;;5.80;99.90;;;;;;4998369;28;20053;-90
2021/12/14 08:05:24;;;;;;;17.13;7.13;;;5.80;99.90;;;;;;5013399;28;20029;-89
2021/12/14 08:08:17;;;;;;;16.25;6.55;;;5.80;99.90;;;;;;4998040;28;20398;-89
2021/12/14 08:13:51;;;;;;;19.23;7.65;;;5.80;99.90;;;;;;5018169;28;20040;-90
2021/12/14 08:16:17;;;;;;;17.42;6.78;;;5.80;99.90;;;;;;4994472;28;20076;-90
2021/12/14 08:18:44;;;;;;;18.23;7.22;;;5.80;99.90;;;;;;5001072;28;20036;-90
2021/12/14 08:21:20;;;;;;;17.98;7.13;;;5.80;99.90;;;;;;4982283;28;20510;-90
2021/12/14 08:23:59;;;;;;;16.23;6.43;;;5.80;99.90;;;;;;4963708;28;20073;-90
2021/12/14 08:26:27;;;;;;;22.40;7.47;;;5.70;99.90;;;;;;5006786;28;20030;-90
2021/12/14 08:29:11;;;;;;;15.23;6.53;;;5.80;99.90;;;;;;4975688;28;20623;-90
2021/12/14 08:31:47;;;;;;;17.00;6.55;;;5.80;99.90;;;;;;4992042;28;20026;-89
2021/12/14 08:34:19;;;;;;;17.88;6.28;;;5.80;99.90;;;;;;4959831;28;20034;-90
2021/12/14 08:37:06;;;;;;;17.30;6.07;;;5.80;99.90;;;;;;4960387;28;20036;-90
2021/12/14 08:39:40;;;;;;;14.48;5.65;;;5.80;99.90;;;;;;4978538;28;20037;-89
2021/12/14 08:42:37;;;;;;;14.63;6.15;;;5.80;99.90;;;;;;5027209;28;20453;-90
2021/12/14 08:45:24;;;;;;;17.42;6.38;;;5.80;99.90;;;;;;5014212;28;20082;-89
2021/12/14 08:47:54;;;;;;;14.40;5.88;;;5.80;99.90;;;;;;4983510;28;20030;-89
2021/12/14 08:50:19;;;;;;;17.88;7.72;;;5.80;99.90;;;;;;4997600;28;20030;-89
2021/12/14 08:52:45;;;;;;;17.92;7.05;;;5.70;99.90;;;;;;4981486;28;20080;-89
2021/12/14 08:55:15;;;;;;;21.52;8.60;;;5.70;99.90;;;;;;4982997;28;20037;-90
2021/12/14 08:57:42;;;;;;;17.40;6.93;;;5.70;99.90;;;;;;5000025;28;20049;-89
2021/12/14 09:00:19;;;;;;;16.45;7.43;;;5.70;99.90;;;;;;4980282;28;20289;-90
2021/12/14 09:02:46;;;;;;;22.25;6.68;;;5.80;99.90;;;;;;4977161;28;20026;-90
2021/12/14 09:05:46;;;;;;;17.13;6.55;;;5.80;99.90;;;;;;4999628;28;20125;-89
2021/12/14 09:08:14;;;;;;;20.38;7.80;;;5.90;99.90;;;;;;5012078;28;20071;-90
2021/12/14 09:10:43;;;;;;;16.65;7.10;;;6.00;99.90;;;;;;4987091;28;20046;-90
2021/12/14 09:13:10;;;;;;;15.10;6.93;;;6.00;99.90;;;;;;4995616;28;20476;-89
2021/12/14 09:16:02;;;;;;;15.02;6.80;;;6.10;99.90;;;;;;5000077;28;20029;-90
2021/12/14 09:18:32;;;;;;;19.13;8.00;;;6.10;99.90;;;;;;5016664;28;20049;-89
2021/12/14 09:21:07;;;;;;;13.35;6.75;;;6.10;99.90;;;;;;4984132;28;20091;-89
2021/12/14 09:23:37;;;;;;;9.77;5.20;;;6.10;99.90;;;;;;5001043;28;20032;-90
2021/12/14 09:26:07;;;;;;;12.93;6.13;;;6.10;99.90;;;;;;5014172;28;20029;-91
2021/12/14 09:28:35;;;;;;;14.07;6.00;;;6.10;99.90;;;;;;5014354;28;20401;-91
2021/12/14 09:31:05;;;;;;;11.35;4.90;;;6.10;99.90;;;;;;5014228;28;20029;-90
2021/12/14 09:33:35;;;;;;;11.15;5.45;;;6.10;99.90;;;;;;5014010;28;20030;-90
2021/12/14 09:36:00;;;;;;;9.90;4.53;;;6.10;99.90;;;;;;5013728;28;20041;-89
2021/12/14 09:38:35;;;;;;;11.85;5.25;;;6.10;99.90;;;;;;5014282;28;20037;-90
2021/12/14 09:41:05;;;;;;;11.52;4.20;;;6.10;99.90;;;;;;5014180;28;20033;-90
2021/12/14 09:43:32;;;;;;;11.18;4.75;;;6.10;99.90;;;;;;5012587;28;20068;-90
2021/12/14 09:46:01;;;;;;;10.85;4.53;;;6.10;99.90;;;;;;5006721;28;20113;-90
2021/12/14 09:48:40;;;;;;;10.45;4.72;;;6.20;99.90;;;;;;4993783;28;20026;-90
2021/12/14 09:51:10;;;;;;;10.70;4.90;;;6.30;99.90;;;;;;4978286;28;20042;-90
2021/12/14 09:53:40;;;;;;;10.55;4.80;;;6.30;99.90;;;;;;4978461;28;20038;-90
2021/12/14 09:56:07;;;;;;;11.83;6.03;;;6.30;99.90;;;;;;4978630;28;20073;-90
2021/12/14 09:58:40;;;;;;;14.30;5.90;;;6.40;99.90;;;;;;4994423;28;20026;-90
2021/12/14 10:01:15;;;;;;;12.63;5.20;;;6.40;99.90;;;;;;4978198;28;20412;-91
2021/12/14 10:03:43;;;;;;;14.00;5.80;;;6.30;99.90;;;;;;4994648;28;20521;-90
2021/12/14 10:06:13;;;;;;;12.35;5.43;;;6.30;99.90;;;;;;4994407;28;20136;-90
2021/12/14 10:08:45;;;;;;;11.88;5.10;;;6.30;99.90;;;;;;4994248;28;20033;-90
2021/12/14 10:11:48;;;;;;;15.48;5.97;;;6.30;99.90;;;;;;4994164;28;20113;-89
2021/12/14 10:14:16;;;;;;;11.20;5.00;;;6.30;99.90;;;;;;4991126;28;20034;-90
2021/12/14 10:16:45;;;;;;;10.43;5.00;;;6.30;99.90;;;;;;4977420;28;20073;-89
2021/12/14 10:19:19;;;;;;;10.45;5.07;;;6.40;99.90;;;;;;4993872;28;20092;-90
2021/12/14 10:21:55;;;;;;;13.00;5.60;;;6.40;99.90;;;;;;4977782;28;20026;-90
2021/12/14 10:24:21;;;;;;;14.32;6.07;;;6.40;99.90;;;;;;4979123;28;20034;-89
2021/12/14 10:26:56;;;;;;;13.07;6.40;;;6.40;99.90;;;;;;4977484;28;20120;-90
2021/12/14 10:29:25;;;;;;;14.88;6.38;;;6.40;99.90;;;;;;4993974;28;20489;-90
2021/12/14 10:32:01;;;;;;;12.23;5.32;;;6.40;99.90;;;;;;4977788;28;20402;-91
2021/12/14 10:34:29;;;;;;;15.00;6.32;;;6.40;99.90;;;;;;4993850;28;20033;-89
2021/12/14 10:37:10;;;;;;;14.23;6.03;;;6.40;99.90;;;;;;4977483;28;20057;-90
2021/12/14 10:42:51;;;;;;;14.10;6.03;;;6.30;99.90;;;;;;4996322;28;20053;-89
2021/12/14 10:45:18;;;;;;;14.93;6.25;;;6.30;99.90;;;;;;4981291;28;20034;-90
2021/12/14 10:47:44;;;;;;;12.48;5.55;;;6.30;99.90;;;;;;4977173;28;20033;-90
2021/12/14 10:50:20;;;;;;;15.30;7.20;;;6.20;99.90;;;;;;4977368;28;20064;-89
2021/12/14 10:52:46;;;;;;;11.93;5.63;;;6.10;99.90;;;;;;4993543;28;20486;-89
2021/12/14 10:55:17;;;;;;;15.10;6.35;;;6.10;99.90;;;;;;4977214;28;20041;-90
2021/12/14 10:57:44;;;;;;;16.77;6.68;;;6.10;99.90;;;;;;4977386;28;20041;-89
2021/12/14 11:00:36;;;;;;;16.02;6.75;;;6.10;99.90;;;;;;5010102;28;20341;-90
2021/12/14 11:03:10;;;;;;;13.38;6.18;;;6.00;99.90;;;;;;4982576;28;20026;-90
2021/12/14 11:05:39;;;;;;;14.73;6.80;;;6.10;99.90;;;;;;4977150;28;20084;-90
2021/12/14 11:08:18;;;;;;;15.73;7.07;;;6.10;99.90;;;;;;4977282;28;20034;-90
2021/12/14 11:10:44;;;;;;;17.35;6.53;;;6.10;99.90;;;;;;4978551;28;20337;-89
2021/12/14 11:13:12;;;;;;;15.98;6.78;;;6.10;99.90;;;;;;4993119;28;20057;-89
2021/12/14 11:15:49;;;;;;;17.25;7.28;;;6.20;99.90;;;;;;4977036;28;20295;-90
2021/12/14 11:18:19;;;;;;;15.90;6.82;;;6.20;99.90;;;;;;4993295;28;20034;-90
2021/12/14 11:21:07;;;;;;;15.47;6.53;;;6.20;99.90;;;;;;4992874;28;20029;-91
2021/12/14 11:23:45;;;;;;;14.60;6.72;;;6.20;99.90;;;;;;4992821;28;20026;-89
2021/12/14 11:26:16;;;;;;;18.15;7.63;;;6.20;99.90;;;;;;4977222;28;20442;-90
2021/12/14 11:28:47;;;;;;;17.20;8.23;;;6.20;99.90;;;;;;4993214;28;20452;-90
2021/12/14 11:31:25;;;;;;;22.15;8.68;;;6.10;99.90;;;;;;4992843;28;20036;-90
2021/12/14 11:33:55;;;;;;;17.95;8.65;;;6.10;99.90;;;;;;4992729;28;20032;-90
2021/12/14 11:36:52;;;;;;;22.15;8.25;;;6.10;99.90;;;;;;4992873;28;20026;-90
2021/12/14 11:39:28;;;;;;;18.30;7.72;;;6.10;99.90;;;;;;5010159;28;20034;-90
2021/12/14 11:42:03;;;;;;;20.98;8.90;;;6.20;99.90;;;;;;4993041;28;20026;-90
2021/12/14 11:44:45;;;;;;;19.92;8.00;;;6.20;99.90;;;;;;4977435;28;20037;-90
2021/12/14 11:47:41;;;;;;;19.20;7.93;;;6.30;99.90;;;;;;4992595;28;20033;-89
2021/12/14 11:50:22;;;;;;;17.27;7.88;;;6.30;99.90;;;;;;4992876;28;20487;-90
2021/12/14 11:53:03;;;;;;;22.67;9.25;;;6.40;99.90;;;;;;4992824;28;20038;-90
2021/12/14 11:55:40;;;;;;;17.75;7.13;;;6.40;99.90;;;;;;4992608;28;20026;-89
2021/12/14 11:58:12;;;;;;;16.08;7.95;;;6.40;99.90;;;;;;4992632;28;20029;-90
2021/12/14 12:00:50;;;;;;;21.52;8.40;;;6.40;99.90;;;;;;4992609;28;20548;-90
2021/12/14 12:03:42;;;;;;;22.42;8.68;;;6.50;99.90;;;;;;4992811;28;20072;-90
2021/12/14 12:11:50;;;;;;;22.43;9.13;;;6.50;99.90;;;;;;5004693;28;20045;-90
2021/12/14 12:14:31;;;;;;;22.05;8.55;;;6.60;99.90;;;;;;5013755;28;20025;-91
2021/12/14 12:17:10;;;;;;;;;;;6.50;99.90;;;;;;5016136;28;20112;-89
2021/12/14 12:19:37;;;;;;;20.80;8.85;;;6.60;99.90;;;;;;5016120;28;19912;-89
2021/12/14 12:22:09;;;;;;;20.00;9.77;;;6.60;99.90;;;;;;5014664;28;20060;-89
2021/12/14 12:24:57;;;;;;;26.50;10.85;;;6.60;99.90;;;;;;4998722;28;20041;-89
2021/12/14 12:27:26;;;;;;;24.35;9.35;;;6.50;99.90;;;;;;5001758;28;20030;-90
2021/12/14 12:30:07;;;;;;;28.45;10.43;;;6.50;99.90;;;;;;4999601;28;20477;-90
2021/12/14 12:32:33;;;;;;;26.85;10.02;;;6.50;99.90;;;;;;5015319;28;20030;-89
2021/12/14 12:35:00;;;;;;;27.10;10.18;;;6.40;99.90;;;;;;4998144;28;20040;-90
2021/12/14 12:37:42;;;;;;;24.80;10.77;;;6.40;99.90;;;;;;4998747;28;20033;-91
2021/12/14 12:40:16;;;;;;;30.63;10.18;;;6.40;99.90;;;;;;5015855;28;20376;-90
2021/12/14 12:42:44;;;;;;;26.40;10.60;;;6.40;99.90;;;;;;4999495;28;20087;-89
2021/12/14 12:45:34;;;;;;;26.48;10.00;;;6.30;99.90;;;;;;5031921;22;20497;-90
2021/12/14 12:48:01;;;;;;;22.27;9.48;;;6.30;99.90;;;;;;5045991;28;20033;-89
2021/12/14 12:50:28;;;;;;;26.63;10.40;;;6.30;99.90;;;;;;5035535;28;20563;-90
2021/12/14 12:52:55;;;;;;;27.52;10.43;;;6.20;99.90;;;;;;5050591;28;20024;-89
2021/12/14 12:55:31;;;;;;;27.67;10.45;;;6.20;99.90;;;;;;5044357;28;20123;-89
2021/12/14 12:58:12;;;;;;;29.38;9.73;;;6.20;99.90;;;;;;5039948;28;20056;-90
2021/12/14 13:00:46;;;;;;;25.85;10.10;;;6.20;99.90;;;;;;5071250;28;20040;-89
2021/12/14 13:03:16;;;;;;;25.52;10.65;;;6.10;99.90;;;;;;5071273;28;20047;-89
2021/12/14 13:05:50;;;;;;;26.45;10.10;;;6.10;99.90;;;;;;5054476;28;20020;-89
2021/12/14 13:08:33;;;;;;;25.58;9.73;;;6.10;99.90;;;;;;5054460;28;20527;-89
2021/12/14 13:11:10;;;;;;;21.13;9.05;;;6.10;99.90;;;;;;5071061;28;20029;-89
2021/12/14 13:13:43;;;;;;;23.92;11.07;;;6.10;99.90;;;;;;5054327;28;20219;-89
2021/12/14 13:16:23;;;;;;;26.23;9.55;;;6.10;99.90;;;;;;5070620;28;20036;-89
2021/12/14 13:18:57;;;;;;;26.17;10.23;;;6.10;99.90;;;;;;5038397;28;20037;-89
2021/12/14 13:21:48;;;;;;;24.75;9.77;;;6.10;99.90;;;;;;5071000;28;20032;-89
2021/12/14 13:24:32;;;;;;;;;;;6.10;99.90;;;;;;5070089;28;20027;-90
2021/12/14 13:27:06;;;;;;;23.60;9.93;;;6.10;99.90;;;;;;5070721;28;19999;-89
2021/12/14 13:30:00;;;;;;;20.65;8.77;;;6.10;99.90;;;;;;5071376;28;20032;-89
2021/12/14 13:32:29;;;;;;;25.88;9.38;;;6.10;99.90;;;;;;5070803;28;20028;-90
2021/12/14 13:35:18;;;;;;;22.73;9.82;;;6.10;99.90;;;;;;5053954;28;20079;-89
2021/12/14 13:37:57;;;;;;;23.08;10.48;;;6.10;99.90;;;;;;5070571;28;20021;-89
2021/12/14 13:40:45;;;;;;;27.80;10.45;;;6.10;99.90;;;;;;5030737;28;20516;-89
2021/12/14 13:43:10;;;;;;;20.83;9.13;;;6.10;99.90;;;;;;5056907;28;20024;-89
2021/12/14 13:45:51;;;;;;;20.77;9.40;;;6.10;99.90;;;;;;5069984;28;20028;-89
2021/12/14 13:48:26;;;;;;;21.98;9.55;;;6.10;99.90;;;;;;5070313;28;20506;-89
2021/12/14 13:50:56;;;;;;;18.60;9.30;;;6.10;99.90;;;;;;5071508;28;20033;-89
2021/12/14 13:53:22;;;;;;;23.35;9.80;;;6.10;99.90;;;;;;5034210;28;20025;-90
2021/12/14 13:55:51;;;;;;;26.08;10.02;;;6.10;99.90;;;;;;5069741;28;20028;-89
2021/12/14 13:58:26;;;;;;;25.10;10.18;;;6.10;99.90;;;;;;5053305;28;20117;-90